Time;durP1;ratioP1;P1;durP2;ratioP2;P2;SDS_P1;SDS_P2;PMS_P1;PMS_P2;Temp;Humidity;BMP_temperature;BMP_pressure;BME280_temperature;BME280_humidity;BME280_pressure;Samples;Min_cycle;Max_cycle;Signal;HPM_P1;HPM_P2
2023/05/01 00:02:23;;;;;;;0.98;0.98;;;23.10;39.60;;;;;;5015336;28;20411;-63
2023/05/01 00:04:50;;;;;;;1.35;1.25;;;23.00;39.60;;;;;;5014993;28;20046;-63
2023/05/01 00:07:17;;;;;;;1.50;1.40;;;23.00;39.60;;;;;;5015304;28;20469;-68
2023/05/01 00:09:45;;;;;;;1.30;1.20;;;23.00;39.60;;;;;;5015245;28;20081;-60
2023/05/01 00:12:12;;;;;;;1.50;1.40;;;23.00;40.20;;;;;;5015169;28;20565;-65
2023/05/01 00:14:40;;;;;;;1.48;1.30;;;23.00;39.70;;;;;;5013926;28;20045;-62
2023/05/01 00:17:07;;;;;;;1.30;1.20;;;23.00;39.70;;;;;;5014968;28;20050;-61
2023/05/01 00:19:35;;;;;;;1.90;1.73;;;23.00;39.70;;;;;;5015124;28;20054;-64
2023/05/01 00:22:02;;;;;;;0.85;0.85;;;23.00;39.70;;;;;;5015133;28;20409;-66
2023/05/01 00:24:29;;;;;;;1.02;1.00;;;23.00;39.70;;;;;;5015302;28;20414;-61
2023/05/01 00:26:56;;;;;;;1.60;1.50;;;23.00;39.70;;;;;;5014804;28;20046;-62
2023/05/01 00:29:24;;;;;;;1.33;1.23;;;23.00;39.80;;;;;;5014891;28;20057;-69
2023/05/01 00:31:52;;;;;;;1.33;1.23;;;22.90;39.70;;;;;;5014875;28;20042;-63
2023/05/01 00:34:19;;;;;;;0.80;0.80;;;23.00;39.80;;;;;;5014692;28;20058;-61
2023/05/01 00:36:46;;;;;;;1.25;1.13;;;22.90;39.70;;;;;;5014812;28;20060;-61
2023/05/01 00:39:16;;;;;;;1.33;1.33;;;22.90;39.70;;;;;;5013774;28;20046;-62
2023/05/01 00:41:43;;;;;;;1.55;1.45;;;22.90;39.80;;;;;;5014617;28;20502;-66
2023/05/01 00:44:10;;;;;;;1.38;1.27;;;22.90;39.80;;;;;;5014454;28;20050;-64
2023/05/01 00:46:37;;;;;;;1.63;1.40;;;22.90;39.80;;;;;;5014332;28;20049;-64
2023/05/01 00:49:05;;;;;;;1.40;1.30;;;22.90;39.80;;;;;;5013098;28;20532;-63
2023/05/01 00:51:33;;;;;;;1.40;1.30;;;22.90;39.80;;;;;;5014224;28;20053;-61
2023/05/01 00:54:00;;;;;;;1.30;1.20;;;22.90;39.80;;;;;;5014367;28;20057;-60
2023/05/01 00:56:29;;;;;;;1.48;1.15;;;22.90;39.80;;;;;;5013454;28;20056;-60
2023/05/01 00:58:57;;;;;;;1.70;1.60;;;22.90;39.80;;;;;;5014196;28;20073;-60
2023/05/01 01:01:24;;;;;;;1.30;1.20;;;22.90;39.80;;;;;;5014050;28;20050;-60
2023/05/01 01:03:53;;;;;;;1.40;1.30;;;22.90;39.90;;;;;;5014097;28;20052;-63
2023/05/01 01:06:35;;;;;;;1.20;1.20;;;22.90;39.90;;;;;;5014552;28;20081;-60
2023/05/01 01:09:20;;;;;;;1.30;1.20;;;22.90;39.90;;;;;;5014276;28;20053;-60
2023/05/01 01:12:04;;;;;;;1.48;1.38;;;22.90;39.90;;;;;;5014095;28;20054;-60
2023/05/01 01:15:01;;;;;;;1.45;1.30;;;22.90;39.90;;;;;;5014102;28;20042;-60
2023/05/01 01:17:41;;;;;;;1.35;1.20;;;22.90;39.90;;;;;;5013830;28;20505;-60
2023/05/01 01:20:25;;;;;;;1.10;1.10;;;22.90;39.90;;;;;;5013926;28;20413;-60
2023/05/01 01:23:19;;;;;;;1.48;1.38;;;22.80;39.90;;;;;;5012776;28;20120;-60
2023/05/01 01:26:03;;;;;;;1.58;1.48;;;22.80;39.90;;;;;;5013373;28;20049;-60
2023/05/01 01:29:10;;;;;;;1.50;1.23;;;22.90;40.00;;;;;;5013978;28;20094;-60
2023/05/01 01:32:08;;;;;;;1.63;1.45;;;22.80;40.00;;;;;;5013901;28;20166;-60
2023/05/01 01:34:47;;;;;;;1.20;1.10;;;22.80;40.00;;;;;;5013620;28;20129;-60
2023/05/01 01:37:21;;;;;;;1.50;1.40;;;22.80;40.00;;;;;;5013036;28;20050;-60
2023/05/01 01:39:53;;;;;;;1.33;1.27;;;22.90;40.60;;;;;;5013994;28;20052;-60
2023/05/01 01:42:29;;;;;;;1.20;1.10;;;22.80;40.00;;;;;;5012402;28;20140;-60
2023/05/01 01:45:03;;;;;;;1.17;1.10;;;22.80;40.00;;;;;;5013855;28;20453;-60
2023/05/01 01:47:33;;;;;;;1.52;1.42;;;22.80;40.00;;;;;;5013389;28;20153;-60
2023/05/01 01:50:04;;;;;;;1.27;1.17;;;22.90;40.00;;;;;;5013722;28;20046;-60
2023/05/01 01:52:34;;;;;;;1.10;1.10;;;22.90;39.90;;;;;;5013448;28;20445;-60
2023/05/01 01:55:08;;;;;;;1.30;1.20;;;22.90;39.90;;;;;;5013791;28;20073;-60
2023/05/01 01:57:42;;;;;;;1.63;1.45;;;22.90;39.90;;;;;;5013266;28;20112;-60
2023/05/01 02:00:11;;;;;;;1.50;1.40;;;22.90;39.80;;;;;;5013286;28;20089;-60
2023/05/01 02:02:39;;;;;;;1.45;1.35;;;22.90;39.90;;;;;;5013217;28;20412;-60
2023/05/01 02:05:10;;;;;;;1.23;1.20;;;22.90;39.80;;;;;;5013591;28;20057;-60
2023/05/01 02:07:39;;;;;;;;;;;22.90;39.90;;;;;;5013640;28;20054;-60
2023/05/01 02:10:12;;;;;;;1.10;1.00;;;22.90;39.80;;;;;;5012932;28;19931;-60
2023/05/01 02:12:43;;;;;;;1.58;1.48;;;22.80;39.80;;;;;;4997569;28;20141;-60
2023/05/01 02:15:11;;;;;;;1.25;1.15;;;22.80;39.80;;;;;;4993939;28;20101;-61
2023/05/01 02:17:40;;;;;;;1.15;1.10;;;22.80;39.80;;;;;;4993379;28;20050;-60
2023/05/01 02:20:11;;;;;;;1.58;1.45;;;22.80;39.90;;;;;;4993261;28;20042;-60
2023/05/01 02:22:42;;;;;;;1.30;1.20;;;22.80;39.90;;;;;;4992399;28;20054;-60
2023/05/01 02:25:11;;;;;;;1.10;1.10;;;22.80;39.90;;;;;;4999778;28;20097;-60
2023/05/01 02:27:54;;;;;;;1.23;1.20;;;22.80;39.90;;;;;;5003756;28;20077;-60
2023/05/01 02:30:21;;;;;;;1.27;1.17;;;22.80;39.90;;;;;;5019856;28;20073;-60
2023/05/01 02:32:49;;;;;;;1.20;1.15;;;22.80;39.90;;;;;;5019896;28;20045;-60
2023/05/01 02:35:16;;;;;;;0.93;0.93;;;22.80;39.90;;;;;;5019504;28;20512;-60
2023/05/01 02:37:44;;;;;;;1.45;1.35;;;22.80;39.90;;;;;;5019243;28;20502;-60
2023/05/01 02:40:14;;;;;;;1.40;1.30;;;22.80;39.90;;;;;;5019140;28;20045;-60
2023/05/01 02:42:46;;;;;;;1.08;1.02;;;22.80;40.00;;;;;;5019313;28;20100;-60
2023/05/01 02:45:19;;;;;;;1.35;1.25;;;22.80;40.00;;;;;;5018983;28;20382;-60
2023/05/01 02:47:50;;;;;;;1.33;1.08;;;22.80;40.00;;;;;;5019167;28;20498;-60
2023/05/01 02:50:19;;;;;;;1.48;1.38;;;22.80;40.00;;;;;;5019858;28;20046;-60
2023/05/01 02:52:46;;;;;;;1.35;1.30;;;22.80;40.00;;;;;;5019621;28;20053;-60
2023/05/01 02:55:14;;;;;;;1.30;1.20;;;22.80;40.00;;;;;;5018933;28;20062;-60
2023/05/01 02:57:41;;;;;;;1.90;1.80;;;22.80;40.00;;;;;;5019330;28;20104;-60
2023/05/01 03:00:09;;;;;;;1.20;1.13;;;22.80;40.00;;;;;;5019280;28;20046;-60
2023/05/01 03:02:37;;;;;;;1.20;1.10;;;22.70;39.90;;;;;;5017888;28;20052;-60
2023/05/01 03:05:04;;;;;;;1.45;1.35;;;22.70;39.90;;;;;;5018906;28;20050;-60
2023/05/01 03:07:34;;;;;;;1.10;1.10;;;22.80;40.00;;;;;;5019270;28;20048;-60
2023/05/01 03:10:03;;;;;;;1.53;1.43;;;22.80;40.00;;;;;;5018931;28;20056;-60
2023/05/01 03:12:32;;;;;;;1.45;1.35;;;22.80;40.00;;;;;;5019226;28;20080;-60
2023/05/01 03:14:59;;;;;;;1.23;1.15;;;22.70;40.00;;;;;;5019054;28;20057;-60
2023/05/01 03:17:26;;;;;;;1.08;1.08;;;22.70;40.00;;;;;;5018367;28;20132;-60
2023/05/01 03:19:54;;;;;;;1.60;1.10;;;22.70;40.00;;;;;;5018974;28;20096;-60
2023/05/01 03:22:22;;;;;;;1.48;1.38;;;22.70;40.00;;;;;;5019207;28;20060;-60
2023/05/01 03:24:49;;;;;;;1.45;1.35;;;22.70;40.00;;;;;;5019239;28;20053;-60
2023/05/01 03:27:17;;;;;;;1.10;1.10;;;22.70;40.10;;;;;;5019472;28;20046;-60
2023/05/01 03:29:44;;;;;;;1.05;0.95;;;22.70;40.10;;;;;;5018835;28;20049;-60
2023/05/01 03:32:11;;;;;;;1.42;1.33;;;22.70;40.10;;;;;;5018924;28;20056;-60
2023/05/01 03:34:38;;;;;;;1.25;1.25;;;22.70;40.10;;;;;;5018038;28;20049;-60
2023/05/01 03:37:05;;;;;;;1.27;1.17;;;22.70;40.10;;;;;;5015343;28;20141;-60
2023/05/01 03:39:32;;;;;;;1.38;1.10;;;22.70;40.10;;;;;;5015867;28;20050;-60
2023/05/01 03:41:59;;;;;;;1.08;1.08;;;22.70;40.10;;;;;;5016084;28;20060;-60
2023/05/01 03:44:27;;;;;;;1.38;0.98;;;22.70;40.10;;;;;;5015258;28;20129;-60
2023/05/01 03:46:54;;;;;;;1.80;1.70;;;22.70;40.10;;;;;;5015682;28;20046;-60
2023/05/01 03:49:21;;;;;;;1.58;1.35;;;22.70;40.10;;;;;;5015221;28;20042;-60
2023/05/01 03:51:48;;;;;;;1.35;1.25;;;22.70;40.10;;;;;;5015703;28;20050;-60
2023/05/01 03:54:15;;;;;;;1.27;1.17;;;22.70;40.00;;;;;;5015925;28;20045;-60
2023/05/01 03:56:43;;;;;;;1.60;1.10;;;22.80;40.00;;;;;;5015433;28;20561;-60
2023/05/01 03:59:10;;;;;;;0.90;0.90;;;22.80;40.00;;;;;;5015337;28;20136;-60
2023/05/01 04:01:38;;;;;;;1.60;1.00;;;22.80;39.90;;;;;;5015714;28;20453;-60
2023/05/01 04:04:06;;;;;;;1.25;1.20;;;22.90;39.90;;;;;;5015712;28;20129;-60
2023/05/01 04:06:35;;;;;;;1.38;1.27;;;22.80;39.80;;;;;;5015097;28;20050;-60
2023/05/01 04:09:02;;;;;;;1.30;1.20;;;22.90;39.90;;;;;;5015188;28;20104;-60
2023/05/01 04:11:29;;;;;;;1.10;1.00;;;22.90;39.80;;;;;;5015313;28;20494;-60
2023/05/01 04:13:56;;;;;;;1.30;1.20;;;22.80;39.80;;;;;;5014897;28;20053;-60
2023/05/01 04:16:24;;;;;;;1.08;1.08;;;22.90;39.90;;;;;;5015422;28;20075;-60
2023/05/01 04:18:51;;;;;;;1.25;1.20;;;22.90;39.80;;;;;;5014901;28;20056;-60
2023/05/01 04:21:19;;;;;;;1.52;1.42;;;22.90;39.80;;;;;;5015449;28;20056;-59
2023/05/01 04:23:46;;;;;;;1.30;1.20;;;22.90;39.80;;;;;;5014778;28;20120;-60
2023/05/01 04:26:14;;;;;;;1.52;1.27;;;22.90;39.80;;;;;;5015243;28;20060;-60
2023/05/01 04:28:41;;;;;;;1.20;1.10;;;22.90;40.30;;;;;;5013558;28;20133;-60
2023/05/01 04:31:08;;;;;;;1.48;1.38;;;22.90;39.70;;;;;;5014882;28;20046;-60
2023/05/01 04:33:35;;;;;;;1.58;1.48;;;22.90;39.70;;;;;;5014829;28;20073;-60
2023/05/01 04:36:03;;;;;;;1.23;1.13;;;22.90;39.70;;;;;;5014623;28;20528;-60
2023/05/01 04:38:30;;;;;;;1.63;1.50;;;22.90;39.50;;;;;;5014365;28;20056;-59
2023/05/01 04:40:58;;;;;;;1.50;1.40;;;23.00;39.50;;;;;;5015027;28;20050;-60
2023/05/01 04:43:25;;;;;;;1.65;1.55;;;23.00;39.40;;;;;;5014518;28;20465;-60
2023/05/01 04:45:53;;;;;;;0.98;0.98;;;23.00;39.20;;;;;;5014965;28;20038;-60
2023/05/01 04:48:20;;;;;;;1.35;1.25;;;23.00;39.10;;;;;;5014748;28;20061;-60
2023/05/01 04:50:48;;;;;;;1.42;1.33;;;23.00;39.00;;;;;;5013033;28;20057;-60
2023/05/01 04:53:15;;;;;;;1.40;1.10;;;23.10;39.10;;;;;;5014641;28;20132;-60
2023/05/01 04:55:42;;;;;;;1.48;1.38;;;23.10;39.10;;;;;;5014195;28;20046;-60
2023/05/01 04:58:10;;;;;;;1.50;1.25;;;23.10;39.10;;;;;;5013162;28;20064;-60
2023/05/01 05:00:37;;;;;;;1.73;1.40;;;23.10;39.10;;;;;;5014382;28;20069;-60
2023/05/01 05:03:04;;;;;;;1.58;1.50;;;23.10;39.00;;;;;;5014248;28;20060;-60
2023/05/01 05:05:31;;;;;;;1.75;1.45;;;23.10;39.00;;;;;;5014535;28;20132;-60
2023/05/01 05:07:59;;;;;;;1.58;1.48;;;23.10;39.00;;;;;;5014054;28;20129;-60
2023/05/01 05:10:26;;;;;;;1.70;1.42;;;23.10;39.50;;;;;;5014624;28;20437;-60
2023/05/01 05:12:53;;;;;;;2.20;1.33;;;23.10;38.90;;;;;;5013586;28;20053;-60
2023/05/01 05:15:20;;;;;;;2.03;1.55;;;23.10;38.90;;;;;;5012560;28;20041;-60
2023/05/01 05:17:47;;;;;;;3.63;1.67;;;23.10;38.80;;;;;;5013916;28;20050;-60
2023/05/01 05:20:15;;;;;;;2.15;1.70;;;23.10;38.80;;;;;;5013887;28;20049;-60
2023/05/01 05:22:42;;;;;;;1.60;1.50;;;23.10;38.90;;;;;;5014137;28;20054;-60
2023/05/01 05:25:09;;;;;;;1.60;1.50;;;23.10;38.80;;;;;;5014215;28;20042;-60
2023/05/01 05:27:37;;;;;;;1.33;1.23;;;23.10;38.80;;;;;;5014132;28;20125;-60
2023/05/01 05:30:05;;;;;;;1.45;1.35;;;23.20;38.80;;;;;;5001948;28;20055;-60
2023/05/01 05:32:32;;;;;;;2.00;1.40;;;23.20;38.80;;;;;;4994250;28;20046;-60
2023/05/01 05:34:59;;;;;;;1.50;1.40;;;23.30;38.80;;;;;;4994445;28;20388;-60
2023/05/01 05:37:26;;;;;;;1.88;1.73;;;23.20;38.60;;;;;;4994146;28;20085;-60
2023/05/01 05:39:54;;;;;;;2.22;1.63;;;23.30;38.60;;;;;;4994078;28;20046;-60
2023/05/01 05:42:21;;;;;;;1.88;1.50;;;23.30;38.60;;;;;;4993571;28;20055;-60
2023/05/01 05:44:48;;;;;;;2.17;1.52;;;23.40;38.50;;;;;;4994017;28;20050;-60
2023/05/01 05:47:15;;;;;;;1.73;1.52;;;23.40;38.40;;;;;;4992968;28;20482;-60
2023/05/01 05:49:42;;;;;;;1.63;1.52;;;23.40;38.30;;;;;;4993646;28;20100;-60
2023/05/01 05:52:09;;;;;;;2.33;1.70;;;23.40;38.20;;;;;;4993858;28;20050;-60
2023/05/01 05:54:37;;;;;;;1.33;1.23;;;23.50;38.20;;;;;;4993800;28;20055;-60
2023/05/01 05:57:04;;;;;;;1.98;1.48;;;23.50;38.10;;;;;;4993691;28;20050;-60
2023/05/01 05:59:31;;;;;;;1.77;1.67;;;23.50;38.00;;;;;;4993197;28;20478;-60
2023/05/01 06:01:58;;;;;;;1.75;1.42;;;23.50;38.00;;;;;;4993309;28;20741;-60
2023/05/01 06:04:25;;;;;;;1.50;1.40;;;23.50;37.90;;;;;;4993522;28;20510;-60
2023/05/01 06:06:53;;;;;;;1.50;1.40;;;23.60;37.80;;;;;;4993065;28;20133;-60
2023/05/01 06:09:20;;;;;;;1.75;1.65;;;23.60;37.70;;;;;;4993603;28;20458;-60
2023/05/01 06:11:48;;;;;;;1.70;1.60;;;23.60;37.60;;;;;;4994115;28;20052;-61
2023/05/01 06:14:15;;;;;;;1.65;1.55;;;23.70;37.60;;;;;;4993433;28;20108;-60
2023/05/01 06:16:43;;;;;;;1.52;1.38;;;23.70;37.50;;;;;;4993372;28;20050;-60
2023/05/01 06:19:11;;;;;;;1.48;1.40;;;23.70;37.50;;;;;;4993401;28;20539;-60
2023/05/01 06:21:38;;;;;;;2.30;1.70;;;23.70;37.30;;;;;;4992330;28;20558;-60
2023/05/01 06:24:05;;;;;;;1.63;1.52;;;23.70;37.20;;;;;;4993353;28;20101;-60
2023/05/01 06:26:32;;;;;;;1.60;1.50;;;23.80;37.10;;;;;;4993209;28;20078;-60
2023/05/01 06:28:59;;;;;;;1.50;1.40;;;23.80;37.10;;;;;;4993438;28;20435;-60
2023/05/01 06:31:26;;;;;;;1.20;1.20;;;23.80;37.00;;;;;;4993550;28;20478;-60
2023/05/01 06:33:54;;;;;;;1.52;1.42;;;23.80;36.90;;;;;;5011485;28;20038;-60
2023/05/01 06:36:21;;;;;;;1.65;1.55;;;23.90;36.90;;;;;;5013068;28;20053;-60
2023/05/01 06:38:48;;;;;;;1.60;1.50;;;23.90;36.80;;;;;;5013030;28;20046;-60
2023/05/01 06:41:16;;;;;;;3.22;1.85;;;23.90;36.70;;;;;;5013077;28;20054;-60
2023/05/01 06:43:43;;;;;;;1.60;1.50;;;23.90;36.60;;;;;;5011458;28;20446;-60
2023/05/01 06:46:11;;;;;;;1.73;1.58;;;24.00;36.60;;;;;;5012991;28;20064;-60
2023/05/01 06:48:38;;;;;;;2.45;1.80;;;24.00;36.50;;;;;;5013048;28;20108;-60
2023/05/01 06:51:05;;;;;;;1.50;1.40;;;24.00;36.40;;;;;;5012732;28;20056;-60
2023/05/01 06:53:32;;;;;;;2.90;1.30;;;24.00;36.40;;;;;;5012799;28;20509;-60
2023/05/01 06:55:59;;;;;;;1.63;1.52;;;24.10;36.40;;;;;;5013113;28;20417;-60
2023/05/01 06:58:26;;;;;;;1.42;1.33;;;24.10;36.30;;;;;;5013023;28;20054;-60
2023/05/01 07:00:54;;;;;;;1.83;1.30;;;24.10;36.20;;;;;;5011279;28;20046;-60
2023/05/01 07:03:21;;;;;;;2.05;1.45;;;24.10;36.10;;;;;;5012698;28;20054;-60
2023/05/01 07:05:49;;;;;;;2.10;1.55;;;24.10;36.00;;;;;;5013171;28;20383;-60
2023/05/01 07:08:16;;;;;;;1.52;1.42;;;24.10;36.00;;;;;;5012347;28;20052;-60
2023/05/01 07:10:43;;;;;;;2.00;1.50;;;24.10;35.90;;;;;;5015363;28;20045;-60
2023/05/01 07:13:10;;;;;;;1.30;1.20;;;24.10;35.80;;;;;;5016461;28;20052;-60
2023/05/01 07:15:38;;;;;;;1.33;1.23;;;24.20;35.80;;;;;;5016365;28;20573;-60
2023/05/01 07:18:05;;;;;;;1.30;1.20;;;24.20;35.70;;;;;;5015993;28;20561;-60
2023/05/01 07:20:33;;;;;;;2.22;1.83;;;24.20;35.70;;;;;;5016035;28;20060;-60
2023/05/01 07:23:00;;;;;;;1.92;1.67;;;24.20;35.70;;;;;;5016613;28;20053;-61
2023/05/01 07:25:28;;;;;;;1.73;1.63;;;24.20;35.60;;;;;;5016150;28;20129;-60
2023/05/01 07:27:55;;;;;;;1.77;1.38;;;24.20;35.60;;;;;;5015914;28;20100;-60
2023/05/01 07:30:22;;;;;;;1.90;1.70;;;24.20;35.60;;;;;;5016489;28;20050;-60
2023/05/01 07:32:50;;;;;;;1.60;1.50;;;24.20;35.50;;;;;;5016317;28;20077;-60
2023/05/01 07:35:17;;;;;;;1.60;1.50;;;24.30;35.50;;;;;;5016332;28;20052;-60
2023/05/01 07:37:44;;;;;;;1.63;1.52;;;24.30;35.50;;;;;;5015928;28;20053;-60
2023/05/01 07:40:11;;;;;;;2.15;1.42;;;24.30;35.50;;;;;;5015736;28;20054;-60
2023/05/01 07:42:38;;;;;;;1.13;1.13;;;24.30;35.40;;;;;;5015361;28;20049;-60
2023/05/01 07:45:06;;;;;;;1.55;1.45;;;24.30;35.40;;;;;;5014751;28;20042;-60
2023/05/01 07:47:33;;;;;;;1.17;1.17;;;24.40;35.40;;;;;;5015665;28;20077;-60
2023/05/01 07:50:01;;;;;;;3.63;2.58;;;24.40;35.40;;;;;;5015941;28;20445;-60
2023/05/01 07:52:29;;;;;;;2.67;1.35;;;24.40;35.40;;;;;;5015120;28;20128;-60
2023/05/01 07:54:56;;;;;;;1.70;1.60;;;24.40;35.30;;;;;;4996025;28;20553;-60
2023/05/01 07:57:23;;;;;;;1.63;1.52;;;24.40;35.30;;;;;;4995340;28;20105;-60
2023/05/01 07:59:58;;;;;;;1.80;1.70;;;24.40;35.30;;;;;;4995748;28;20050;-60
2023/05/01 08:02:26;;;;;;;1.58;1.45;;;24.40;35.30;;;;;;4995869;28;20046;-60
2023/05/01 08:04:53;;;;;;;2.00;1.55;;;24.40;35.80;;;;;;4995605;28;20056;-60
2023/05/01 08:07:20;;;;;;;1.50;1.40;;;24.50;35.30;;;;;;4996109;28;20077;-60
2023/05/01 08:09:47;;;;;;;1.75;1.65;;;24.40;35.10;;;;;;4995769;28;20510;-60
2023/05/01 08:12:15;;;;;;;1.80;1.70;;;24.50;35.20;;;;;;4995668;28;20129;-61
2023/05/01 08:14:42;;;;;;;1.90;1.73;;;24.50;35.10;;;;;;4995626;28;20388;-60
2023/05/01 08:17:09;;;;;;;2.15;1.85;;;24.50;35.10;;;;;;4994525;28;20093;-61
2023/05/01 08:19:36;;;;;;;1.88;1.77;;;24.50;35.00;;;;;;4995418;28;20556;-60
2023/05/01 08:22:03;;;;;;;2.78;1.30;;;24.50;35.00;;;;;;4994796;28;20043;-60
2023/05/01 08:24:33;;;;;;;1.67;1.50;;;24.50;35.00;;;;;;4995393;28;20054;-60
2023/05/01 08:27:01;;;;;;;1.27;1.17;;;24.50;34.90;;;;;;4995890;28;20454;-60
2023/05/01 08:29:28;;;;;;;1.50;1.40;;;24.50;34.90;;;;;;4995776;28;20046;-60
2023/05/01 08:31:57;;;;;;;1.73;1.63;;;24.50;35.00;;;;;;4995002;28;20491;-60
2023/05/01 08:34:24;;;;;;;3.10;1.63;;;24.50;34.90;;;;;;4995314;28;20502;-60
2023/05/01 08:36:51;;;;;;;1.38;1.27;;;24.50;34.90;;;;;;4995611;28;20426;-60
2023/05/01 08:39:18;;;;;;;1.40;1.30;;;24.50;34.90;;;;;;4994283;28;20046;-60
2023/05/01 08:41:46;;;;;;;1.60;1.17;;;24.50;34.90;;;;;;4995318;28;20149;-60
2023/05/01 08:44:15;;;;;;;1.35;1.25;;;24.50;35.00;;;;;;4995314;28;20050;-60
2023/05/01 08:47:08;;;;;;;2.03;1.50;;;24.50;35.00;;;;;;4995367;28;20070;-60
2023/05/01 08:49:36;;;;;;;1.77;1.58;;;24.50;35.00;;;;;;4995239;28;20038;-60
2023/05/01 08:52:05;;;;;;;1.58;1.45;;;24.50;35.00;;;;;;4994968;28;20141;-60
2023/05/01 08:54:34;;;;;;;2.90;1.70;;;24.50;35.00;;;;;;4995395;28;20082;-60
2023/05/01 08:57:05;;;;;;;1.30;1.30;;;24.50;35.00;;;;;;4994803;28;20054;-60
2023/05/01 08:59:37;;;;;;;2.60;1.48;;;24.50;35.00;;;;;;4995234;28;20086;-60
2023/05/01 09:02:06;;;;;;;1.25;1.15;;;24.50;35.00;;;;;;4994483;28;20046;-60
2023/05/01 09:04:38;;;;;;;1.88;1.30;;;24.50;35.00;;;;;;4994411;28;20064;-60
2023/05/01 09:07:05;;;;;;;1.27;1.08;;;24.50;34.90;;;;;;4993745;28;20096;-60
2023/05/01 09:09:33;;;;;;;1.20;1.10;;;24.50;35.00;;;;;;4994527;28;20483;-60
2023/05/01 09:12:13;;;;;;;1.40;1.08;;;24.50;34.90;;;;;;4994633;28;20150;-60
2023/05/01 09:14:40;;;;;;;1.58;1.48;;;24.50;35.00;;;;;;4994664;28;20046;-60
2023/05/01 09:17:08;;;;;;;1.58;1.48;;;24.50;35.00;;;;;;4994462;28;20503;-60
2023/05/01 09:19:35;;;;;;;1.20;1.20;;;24.50;35.00;;;;;;4994709;28;20050;-60
2023/05/01 09:22:02;;;;;;;1.50;1.40;;;24.60;35.00;;;;;;4994337;28;20043;-60
2023/05/01 09:24:29;;;;;;;1.30;1.20;;;24.50;35.00;;;;;;4994634;28;20050;-60
2023/05/01 09:26:57;;;;;;;1.65;1.55;;;24.60;35.00;;;;;;4993634;28;20134;-60
2023/05/01 09:29:42;;;;;;;1.30;1.20;;;24.50;34.90;;;;;;4994563;28;20064;-60
2023/05/01 09:32:23;;;;;;;2.13;1.80;;;24.50;34.90;;;;;;4994125;28;20482;-60
2023/05/01 09:34:52;;;;;;;1.50;1.40;;;24.50;34.90;;;;;;4992468;28;20047;-60
2023/05/01 09:37:33;;;;;;;1.48;1.38;;;24.50;34.90;;;;;;4993693;28;20088;-60
2023/05/01 09:40:05;;;;;;;1.17;1.10;;;24.50;34.90;;;;;;4994219;28;20129;-60
2023/05/01 09:42:35;;;;;;;1.80;1.70;;;24.50;34.90;;;;;;4993091;28;20105;-60
2023/05/01 09:45:05;;;;;;;2.00;1.30;;;24.60;35.00;;;;;;4993294;28;20137;-60
2023/05/01 09:47:33;;;;;;;2.22;1.40;;;24.60;35.10;;;;;;4994340;28;20053;-60
2023/05/01 09:50:00;;;;;;;1.65;1.40;;;24.60;35.10;;;;;;4993776;28;20053;-60
2023/05/01 09:52:28;;;;;;;1.58;1.30;;;24.60;35.10;;;;;;4994043;28;20054;-60
2023/05/01 09:55:15;;;;;;;1.63;1.40;;;24.60;35.10;;;;;;4993668;28;20057;-60
2023/05/01 09:57:44;;;;;;;1.42;1.33;;;24.70;35.10;;;;;;4993907;28;20046;-60
2023/05/01 10:00:12;;;;;;;4.25;1.85;;;24.70;35.00;;;;;;4993788;28;20062;-60
2023/05/01 10:02:43;;;;;;;1.48;1.40;;;24.70;35.00;;;;;;4993627;28;20226;-60
2023/05/01 10:05:11;;;;;;;2.15;1.20;;;24.70;35.00;;;;;;4993834;28;20058;-60
2023/05/01 10:07:39;;;;;;;1.50;1.40;;;24.70;35.00;;;;;;4993697;28;20141;-60
2023/05/01 10:10:21;;;;;;;1.27;1.20;;;24.70;34.90;;;;;;5013355;28;20124;-60
2023/05/01 10:12:48;;;;;;;1.35;1.25;;;24.70;35.00;;;;;;5011667;28;20046;-60
2023/05/01 10:15:16;;;;;;;1.00;1.00;;;24.70;34.90;;;;;;5013628;28;20041;-60
2023/05/01 10:17:53;;;;;;;2.17;1.23;;;24.70;34.90;;;;;;5013244;28;20050;-60
2023/05/01 10:20:20;;;;;;;2.42;1.58;;;24.70;34.90;;;;;;5013403;28;20088;-60
2023/05/01 10:22:48;;;;;;;1.40;1.30;;;24.70;34.80;;;;;;5013258;28;20042;-60
2023/05/01 10:25:16;;;;;;;1.40;1.30;;;24.70;34.80;;;;;;5013141;28;20050;-60
2023/05/01 10:27:44;;;;;;;1.45;1.35;;;24.70;34.80;;;;;;5012797;28;20053;-60
2023/05/01 10:30:11;;;;;;;1.50;1.40;;;24.80;34.90;;;;;;5013008;28;20112;-60
2023/05/01 10:32:41;;;;;;;1.48;1.38;;;24.80;34.80;;;;;;5013245;28;20061;-60
2023/05/01 10:35:13;;;;;;;;;;;24.80;34.90;;;;;;5013250;28;20046;-60
2023/05/01 10:37:55;;;;;;;1.60;1.50;;;24.80;34.80;;;;;;5013217;28;19993;-60
2023/05/01 10:40:42;;;;;;;3.13;1.30;;;24.80;34.80;;;;;;5013466;28;20042;-60
2023/05/01 10:43:18;;;;;;;0.98;0.98;;;24.80;34.80;;;;;;5012764;28;20132;-60
2023/05/01 10:45:47;;;;;;;1.75;1.17;;;24.80;34.80;;;;;;5015256;28;20085;-60
2023/05/01 10:48:54;;;;;;;1.20;1.10;;;24.80;34.80;;;;;;5015017;28;20673;-60
2023/05/01 10:51:23;;;;;;;2.70;1.20;;;24.80;34.80;;;;;;5015887;28;20073;-60
2023/05/01 10:54:21;;;;;;;2.00;1.63;;;24.80;34.80;;;;;;5017201;28;20046;-60
2023/05/01 10:56:49;;;;;;;1.50;1.40;;;24.80;34.80;;;;;;5016696;28;20161;-60
2023/05/01 10:59:16;;;;;;;1.70;1.60;;;24.80;34.80;;;;;;5016903;28;20054;-60
2023/05/01 11:01:46;;;;;;;1.50;1.40;;;24.90;34.80;;;;;;5016145;28;20092;-60
2023/05/01 11:04:47;;;;;;;1.38;1.27;;;24.90;34.80;;;;;;5015214;28;20058;-60
2023/05/01 11:07:16;;;;;;;1.55;1.45;;;24.90;34.70;;;;;;5015808;28;20046;-60
2023/05/01 11:09:46;;;;;;;1.23;1.17;;;24.90;34.70;;;;;;5016390;28;20121;-60
2023/05/01 11:12:14;;;;;;;1.25;1.17;;;24.90;34.70;;;;;;5015930;28;20494;-60
2023/05/01 11:15:03;;;;;;;1.30;1.23;;;24.90;34.60;;;;;;5016419;28;20092;-60
2023/05/01 11:17:48;;;;;;;1.38;1.27;;;25.00;34.60;;;;;;5014872;28;20525;-60
2023/05/01 11:20:47;;;;;;;1.25;1.25;;;25.00;34.60;;;;;;5016225;28;20505;-60
2023/05/01 11:23:18;;;;;;;1.73;1.55;;;25.00;34.50;;;;;;5014984;28;20049;-60
2023/05/01 11:25:47;;;;;;;1.52;1.20;;;25.00;34.50;;;;;;5016169;28;20137;-60
2023/05/01 11:28:19;;;;;;;1.23;1.20;;;25.00;34.40;;;;;;5016046;28;20136;-60
2023/05/01 11:30:47;;;;;;;1.60;1.42;;;25.10;34.50;;;;;;5016243;28;20137;-60
2023/05/01 11:33:21;;;;;;;1.00;1.00;;;25.10;34.40;;;;;;5016033;28;20081;-60
2023/05/01 11:35:57;;;;;;;1.75;1.40;;;25.10;34.40;;;;;;5016356;28;20053;-60
2023/05/01 11:38:24;;;;;;;1.50;1.40;;;25.20;34.40;;;;;;5016483;28;20080;-60
2023/05/01 11:40:57;;;;;;;1.33;1.23;;;25.20;34.30;;;;;;5015661;28;20060;-60
2023/05/01 11:43:25;;;;;;;1.30;1.20;;;25.20;34.30;;;;;;5015950;28;20082;-60
2023/05/01 11:45:53;;;;;;;1.02;1.02;;;25.20;34.30;;;;;;5014016;28;20116;-60
2023/05/01 11:48:21;;;;;;;1.30;1.20;;;25.20;34.20;;;;;;5015950;28;20049;-60
2023/05/01 11:50:48;;;;;;;1.20;1.10;;;25.20;34.20;;;;;;5015566;28;20056;-60
2023/05/01 11:53:16;;;;;;;1.48;1.38;;;25.30;34.20;;;;;;5015583;28;20057;-60
2023/05/01 11:55:44;;;;;;;1.27;1.17;;;25.30;34.20;;;;;;5015132;28;20081;-60
2023/05/01 11:58:12;;;;;;;1.38;1.27;;;25.30;34.10;;;;;;5015181;28;20137;-60
2023/05/01 12:00:41;;;;;;;1.17;1.08;;;25.30;34.00;;;;;;5015574;28;20471;-61
2023/05/01 12:03:10;;;;;;;2.20;1.30;;;25.40;34.10;;;;;;5015381;28;20116;-60
2023/05/01 12:05:41;;;;;;;1.30;1.20;;;25.40;34.00;;;;;;5015587;28;20708;-60
2023/05/01 12:08:14;;;;;;;1.20;1.20;;;25.40;34.00;;;;;;5014929;28;20128;-60
2023/05/01 12:10:42;;;;;;;1.95;1.42;;;25.40;33.90;;;;;;5015535;28;20476;-60
2023/05/01 12:13:12;;;;;;;1.20;1.10;;;25.40;33.90;;;;;;5015487;28;20586;-60
2023/05/01 12:15:43;;;;;;;1.65;0.98;;;25.40;33.90;;;;;;5015334;28;20045;-60
2023/05/01 12:18:12;;;;;;;1.20;1.10;;;25.40;33.80;;;;;;5015069;28;20138;-60
2023/05/01 12:20:46;;;;;;;1.20;1.10;;;25.40;33.80;;;;;;5015201;28;20057;-60
2023/05/01 12:23:15;;;;;;;1.60;1.27;;;25.40;33.80;;;;;;5014713;28;20068;-60
2023/05/01 12:25:43;;;;;;;1.33;1.20;;;25.50;33.80;;;;;;5015454;28;20092;-60
2023/05/01 12:28:17;;;;;;;1.55;1.45;;;25.50;33.70;;;;;;5015106;28;20084;-60
2023/05/01 12:30:46;;;;;;;1.20;1.20;;;25.50;33.70;;;;;;5015144;28;20048;-60
2023/05/01 12:33:18;;;;;;;1.42;1.23;;;25.50;33.60;;;;;;5013680;28;20056;-60
2023/05/01 12:35:48;;;;;;;1.85;1.30;;;25.50;33.60;;;;;;5014969;28;20061;-60
2023/05/01 12:38:18;;;;;;;1.08;0.98;;;25.50;33.50;;;;;;5014966;28;20049;-60
2023/05/01 12:40:59;;;;;;;1.20;1.10;;;25.60;33.60;;;;;;5014615;28;20046;-60
2023/05/01 12:43:31;;;;;;;0.95;0.95;;;25.60;33.60;;;;;;5013139;28;20045;-60
2023/05/01 12:45:59;;;;;;;1.38;1.27;;;25.60;33.50;;;;;;5013624;28;20097;-60
2023/05/01 12:48:26;;;;;;;1.10;1.10;;;25.60;33.50;;;;;;5013996;28;20057;-59
2023/05/01 12:50:54;;;;;;;1.33;1.23;;;25.60;33.50;;;;;;5014507;28;20096;-60
2023/05/01 12:53:28;;;;;;;0.80;0.80;;;25.60;33.40;;;;;;5014850;28;20475;-60
2023/05/01 12:55:58;;;;;;;1.58;1.00;;;25.60;33.40;;;;;;5014393;28;20482;-60
2023/05/01 12:58:38;;;;;;;1.00;1.00;;;25.60;33.40;;;;;;5014337;28;20463;-60
2023/05/01 13:01:05;;;;;;;1.17;1.08;;;25.70;33.40;;;;;;5014503;28;20046;-60
2023/05/01 13:03:33;;;;;;;1.38;0.80;;;25.70;33.40;;;;;;5014202;28;20058;-60